createdAt,value
2022-07-31T00:00:41.396Z,6.30
2022-07-31T00:01:41.394Z,4.90
2022-07-31T00:02:41.387Z,7.20
2022-07-31T00:03:41.427Z,5.20
2022-07-31T00:04:41.381Z,6.50
2022-07-31T00:05:41.933Z,6.80
2022-07-31T00:06:41.377Z,6.20
2022-07-31T00:07:41.374Z,5.40
2022-07-31T00:08:41.369Z,5.00
2022-07-31T00:09:53.332Z,7.20
2022-07-31T00:10:41.362Z,5.60
2022-07-31T00:11:41.362Z,6.90
2022-07-31T00:12:41.358Z,7.30
2022-07-31T00:13:57.527Z,6.80
2022-07-31T00:14:41.355Z,6.30
2022-07-31T00:15:41.349Z,7.80
2022-07-31T00:16:41.346Z,5.90
2022-07-31T00:17:41.346Z,5.70
2022-07-31T00:18:41.341Z,4.40
2022-07-31T00:19:41.340Z,6.90
2022-07-31T00:20:41.335Z,7.30
2022-07-31T00:21:41.332Z,5.40
2022-07-31T00:22:41.330Z,7.50
2022-07-31T00:23:41.326Z,5.70
2022-07-31T00:24:41.322Z,5.00
2022-07-31T00:25:41.321Z,6.70
2022-07-31T00:26:41.317Z,4.80
2022-07-31T00:27:41.316Z,5.90
2022-07-31T00:28:41.311Z,5.80
2022-07-31T00:29:41.305Z,6.70
2022-07-31T00:30:41.306Z,6.30
2022-07-31T00:31:41.303Z,5.00
2022-07-31T00:32:41.300Z,5.50
2022-07-31T00:33:41.296Z,6.30
2022-07-31T00:34:41.293Z,5.30
2022-07-31T00:35:41.291Z,5.40
2022-07-31T00:36:41.287Z,5.00
2022-07-31T00:37:41.465Z,6.10
2022-07-31T00:38:41.282Z,4.90
2022-07-31T00:39:41.279Z,6.40
2022-07-31T00:40:41.274Z,5.30
2022-07-31T00:41:41.272Z,5.90
2022-07-31T00:42:41.270Z,7.20
2022-07-31T00:43:41.268Z,4.50
2022-07-31T00:44:41.263Z,5.60
2022-07-31T00:45:41.261Z,6.00
2022-07-31T00:46:41.259Z,5.20
2022-07-31T00:47:41.254Z,4.90
2022-07-31T00:48:41.251Z,6.10
2022-07-31T00:49:41.249Z,4.70
2022-07-31T00:50:41.248Z,4.20
2022-07-31T00:51:41.242Z,4.80
2022-07-31T00:52:41.241Z,7.70
2022-07-31T00:53:41.237Z,5.30
2022-07-31T00:54:41.233Z,6.10
2022-07-31T00:55:51.479Z,7.10
2022-07-31T00:56:41.225Z,4.60
2022-07-31T00:57:41.223Z,5.40
2022-07-31T00:58:41.219Z,4.90
2022-07-31T00:59:41.218Z,6.30
2022-07-31T01:00:41.234Z,5.80
2022-07-31T01:01:41.300Z,6.70
2022-07-31T01:02:46.618Z,5.70
2022-07-31T01:03:41.203Z,6.70
2022-07-31T01:04:41.635Z,6.00
2022-07-31T01:05:41.196Z,6.20
2022-07-31T01:06:42.742Z,7.40
2022-07-31T01:07:41.190Z,6.70
2022-07-31T01:08:41.188Z,5.50
2022-07-31T01:09:41.182Z,7.10
2022-07-31T01:10:41.179Z,5.10
2022-07-31T01:11:41.176Z,4.90
2022-07-31T01:12:41.171Z,3.70
2022-07-31T01:13:41.169Z,5.00
2022-07-31T01:14:41.164Z,4.00
2022-07-31T01:15:41.163Z,6.30
2022-07-31T01:16:41.167Z,5.00
2022-07-31T01:17:41.157Z,6.60
2022-07-31T01:18:41.153Z,4.30
2022-07-31T01:19:42.812Z,4.80
2022-07-31T01:20:41.146Z,5.60
2022-07-31T01:21:41.143Z,4.90
2022-07-31T01:22:41.139Z,5.10
2022-07-31T01:23:41.135Z,4.30
2022-07-31T01:24:41.134Z,5.20
2022-07-31T01:25:41.129Z,6.70
2022-07-31T01:26:41.125Z,5.90
2022-07-31T01:27:49.215Z,6.10
2022-07-31T01:28:41.118Z,8.00
2022-07-31T01:29:41.116Z,9.30
2022-07-31T01:30:41.112Z,6.00
2022-07-31T01:31:41.114Z,5.50
2022-07-31T01:32:41.105Z,6.00
2022-07-31T01:33:41.103Z,7.70
2022-07-31T01:34:41.099Z,6.20
2022-07-31T01:35:41.095Z,5.60
2022-07-31T01:36:41.090Z,6.10
2022-07-31T01:37:41.088Z,6.10
2022-07-31T01:38:45.271Z,4.80
2022-07-31T01:39:41.080Z,6.60
2022-07-31T01:40:41.078Z,4.90
2022-07-31T01:41:41.071Z,7.20
2022-07-31T01:42:41.071Z,6.70
2022-07-31T01:43:41.066Z,5.30
2022-07-31T01:44:41.061Z,5.00
2022-07-31T01:45:41.060Z,4.50
2022-07-31T01:46:41.470Z,6.40
2022-07-31T01:47:41.050Z,5.40
2022-07-31T01:48:41.045Z,5.60
2022-07-31T01:49:41.043Z,6.60
2022-07-31T01:50:43.069Z,8.20
2022-07-31T01:51:41.036Z,7.20
2022-07-31T01:52:41.030Z,6.40
2022-07-31T01:53:41.031Z,5.90
2022-07-31T01:54:41.024Z,6.30
2022-07-31T01:55:56.447Z,5.70
2022-07-31T01:56:41.019Z,6.20
2022-07-31T01:57:41.019Z,6.60
2022-07-31T01:58:41.009Z,5.90
2022-07-31T01:59:44.787Z,6.10
2022-07-31T02:00:41.130Z,4.50
2022-07-31T02:01:41.081Z,7.80
2022-07-31T02:02:42.383Z,4.80
2022-07-31T02:03:44.245Z,6.70
2022-07-31T02:04:40.988Z,5.60
2022-07-31T02:05:40.984Z,5.30
2022-07-31T02:06:40.981Z,4.10
2022-07-31T02:07:40.978Z,4.90
2022-07-31T02:08:40.970Z,5.20
2022-07-31T02:09:52.298Z,4.70
2022-07-31T02:10:40.962Z,5.50
2022-07-31T02:11:53.790Z,4.20
2022-07-31T02:12:40.959Z,5.80
2022-07-31T02:13:40.955Z,4.90
2022-07-31T02:14:40.949Z,6.50
2022-07-31T02:15:40.946Z,4.50
2022-07-31T02:16:40.940Z,5.30
2022-07-31T02:17:40.939Z,6.40
2022-07-31T02:18:40.935Z,6.30
2022-07-31T02:19:40.931Z,5.00
2022-07-31T02:20:40.925Z,6.40
2022-07-31T02:21:40.924Z,5.70
2022-07-31T02:22:40.919Z,4.90
2022-07-31T02:23:40.916Z,6.50
2022-07-31T02:24:40.913Z,4.20
2022-07-31T02:25:40.908Z,5.20
2022-07-31T02:26:40.906Z,8.80
2022-07-31T02:27:57.158Z,5.30
2022-07-31T02:28:40.898Z,5.40
2022-07-31T02:29:40.892Z,4.90
2022-07-31T02:30:40.889Z,5.40
2022-07-31T02:31:40.885Z,6.00
2022-07-31T02:32:40.881Z,5.40
2022-07-31T02:33:40.968Z,5.40
2022-07-31T02:34:40.873Z,6.60
2022-07-31T02:35:44.043Z,5.90
2022-07-31T02:36:40.865Z,5.90
2022-07-31T02:37:40.861Z,5.80
2022-07-31T02:38:40.857Z,5.60
2022-07-31T02:39:40.853Z,5.80
2022-07-31T02:40:41.229Z,5.70
2022-07-31T02:41:40.846Z,5.00
2022-07-31T02:42:40.842Z,5.10
2022-07-31T02:43:40.837Z,4.10
2022-07-31T02:44:40.833Z,5.30
2022-07-31T02:45:40.826Z,4.20
2022-07-31T02:46:40.826Z,5.40
2022-07-31T02:47:40.821Z,6.60
2022-07-31T02:48:40.817Z,6.00
2022-07-31T02:49:40.816Z,5.60
2022-07-31T02:50:40.809Z,5.00
2022-07-31T02:51:43.570Z,5.20
2022-07-31T02:52:40.805Z,6.20
2022-07-31T02:53:40.798Z,6.80
2022-07-31T02:54:40.795Z,6.80
2022-07-31T02:55:40.795Z,4.90
2022-07-31T02:56:40.786Z,5.30
2022-07-31T02:57:40.782Z,5.00
2022-07-31T02:58:40.778Z,5.30
2022-07-31T02:59:40.776Z,5.80
2022-07-31T03:00:40.803Z,5.20
2022-07-31T03:01:40.838Z,7.00
2022-07-31T03:02:40.762Z,6.10
2022-07-31T03:03:40.758Z,4.80
2022-07-31T03:04:40.754Z,3.90
2022-07-31T03:05:40.752Z,5.20
2022-07-31T03:06:40.746Z,6.00
2022-07-31T03:07:40.744Z,5.90
2022-07-31T03:08:40.746Z,5.60
2022-07-31T03:09:40.731Z,4.60
2022-07-31T03:10:40.728Z,3.70
2022-07-31T03:11:40.789Z,5.30
2022-07-31T03:12:40.719Z,4.50
2022-07-31T03:13:40.719Z,4.50
2022-07-31T03:14:40.716Z,5.40
2022-07-31T03:15:40.707Z,4.80
2022-07-31T03:16:40.701Z,4.60
2022-07-31T03:17:41.254Z,6.00
2022-07-31T03:18:40.696Z,7.90
2022-07-31T03:19:40.691Z,6.90
2022-07-31T03:20:40.686Z,6.00
2022-07-31T03:21:40.700Z,6.50
2022-07-31T03:22:40.678Z,4.40
2022-07-31T03:23:40.677Z,7.00
2022-07-31T03:24:40.668Z,6.70
2022-07-31T03:25:40.666Z,4.60
2022-07-31T03:26:40.659Z,4.80
2022-07-31T03:27:40.660Z,5.80
2022-07-31T03:28:40.656Z,5.40
2022-07-31T03:29:43.457Z,7.40
2022-07-31T03:30:40.644Z,6.60
2022-07-31T03:31:40.640Z,7.20
2022-07-31T03:32:40.634Z,6.40
2022-07-31T03:33:40.631Z,5.90
2022-07-31T03:34:40.627Z,4.60
2022-07-31T03:35:44.622Z,4.20
2022-07-31T03:36:40.618Z,6.50
2022-07-31T03:37:40.614Z,5.60
2022-07-31T03:38:43.340Z,3.50
2022-07-31T03:39:40.603Z,6.40
2022-07-31T03:40:40.603Z,6.10
2022-07-31T03:41:40.597Z,4.80
2022-07-31T03:42:40.589Z,4.30
2022-07-31T03:43:44.409Z,4.10
2022-07-31T03:44:40.582Z,3.80
2022-07-31T03:45:40.576Z,5.10
2022-07-31T03:46:40.571Z,5.60
2022-07-31T03:47:40.569Z,4.20
2022-07-31T03:48:40.563Z,4.90
2022-07-31T03:49:40.559Z,5.20
2022-07-31T03:50:40.557Z,4.40
2022-07-31T03:51:40.554Z,4.60
2022-07-31T03:52:40.549Z,5.90
2022-07-31T03:53:40.546Z,5.30
2022-07-31T03:54:40.537Z,8.30
2022-07-31T03:55:40.540Z,5.80
2022-07-31T03:56:40.527Z,6.00
2022-07-31T03:57:40.524Z,6.00
2022-07-31T03:58:40.521Z,5.30
2022-07-31T03:59:48.422Z,4.20
2022-07-31T04:00:40.513Z,4.90
2022-07-31T04:01:56.766Z,4.60
2022-07-31T04:02:40.552Z,4.20
2022-07-31T04:03:40.497Z,4.90
2022-07-31T04:04:40.493Z,4.30
2022-07-31T04:05:40.489Z,4.50
2022-07-31T04:06:40.486Z,4.60
2022-07-31T04:07:40.479Z,4.70
2022-07-31T04:08:40.475Z,5.10
2022-07-31T04:09:40.472Z,4.50
2022-07-31T04:10:40.471Z,4.70
2022-07-31T04:11:40.463Z,5.10
2022-07-31T04:12:40.458Z,3.90
2022-07-31T04:13:40.452Z,4.60
2022-07-31T04:14:40.449Z,4.80
2022-07-31T04:15:40.445Z,5.80
2022-07-31T04:16:40.441Z,5.60
2022-07-31T04:17:40.437Z,5.00
2022-07-31T04:18:40.432Z,5.30
2022-07-31T04:19:40.427Z,5.10
2022-07-31T04:20:40.422Z,5.60
2022-07-31T04:21:40.421Z,4.10
2022-07-31T04:22:40.415Z,5.00
2022-07-31T04:23:40.409Z,3.60
2022-07-31T04:24:40.405Z,3.80
2022-07-31T04:25:40.401Z,4.90
2022-07-31T04:26:40.398Z,5.50
2022-07-31T04:27:47.893Z,6.00
2022-07-31T04:28:40.394Z,3.20
2022-07-31T04:29:40.387Z,4.40
2022-07-31T04:30:40.383Z,5.20
2022-07-31T04:31:40.377Z,4.90
2022-07-31T04:32:40.373Z,4.30
2022-07-31T04:33:46.516Z,4.80
2022-07-31T04:34:40.366Z,5.80
2022-07-31T04:35:40.363Z,5.10
2022-07-31T04:36:40.357Z,5.40
2022-07-31T04:37:40.355Z,6.10
2022-07-31T04:38:40.352Z,5.30
2022-07-31T04:39:40.348Z,4.60
2022-07-31T04:40:40.341Z,5.00
2022-07-31T04:41:40.339Z,5.20
2022-07-31T04:42:40.337Z,5.10
2022-07-31T04:43:40.333Z,5.50
2022-07-31T04:44:40.329Z,5.40
2022-07-31T04:45:40.325Z,5.60
2022-07-31T04:46:40.322Z,5.90
2022-07-31T04:47:40.319Z,7.40
2022-07-31T04:48:41.328Z,5.90
2022-07-31T04:49:40.315Z,6.30
2022-07-31T04:50:40.310Z,6.60
2022-07-31T04:51:40.308Z,7.10
2022-07-31T04:52:40.304Z,7.70
2022-07-31T04:53:40.300Z,7.90
2022-07-31T04:54:40.299Z,8.20
2022-07-31T04:55:40.300Z,11.30
2022-07-31T04:56:40.290Z,8.70
2022-07-31T04:57:40.289Z,8.60
2022-07-31T04:58:40.287Z,8.80
2022-07-31T04:59:59.830Z,8.90
2022-07-31T05:00:40.283Z,8.50
2022-07-31T05:01:40.338Z,8.00
2022-07-31T05:02:40.277Z,8.60
2022-07-31T05:03:40.275Z,8.60
2022-07-31T05:04:40.272Z,9.20
2022-07-31T05:05:40.273Z,9.00
2022-07-31T05:06:40.268Z,9.20
2022-07-31T05:07:40.267Z,9.90
2022-07-31T05:08:40.265Z,10.00
2022-07-31T05:09:40.264Z,9.10
2022-07-31T05:10:40.261Z,9.50
2022-07-31T05:11:40.260Z,9.10
2022-07-31T05:12:40.257Z,9.00
2022-07-31T05:13:40.257Z,9.30
2022-07-31T05:14:40.256Z,9.70
2022-07-31T05:15:40.257Z,10.20
2022-07-31T05:16:40.253Z,11.60
2022-07-31T05:17:40.251Z,10.80
2022-07-31T05:18:40.250Z,11.00
2022-07-31T05:19:40.251Z,12.00
2022-07-31T05:20:40.248Z,12.10
2022-07-31T05:21:53.144Z,13.10
2022-07-31T05:22:40.247Z,12.30
2022-07-31T05:23:40.248Z,12.30
2022-07-31T05:24:40.246Z,11.80
2022-07-31T05:25:40.245Z,12.50
2022-07-31T05:26:40.246Z,13.30
2022-07-31T05:27:41.339Z,13.30
2022-07-31T05:28:40.243Z,13.90
2022-07-31T05:29:40.243Z,14.50
2022-07-31T05:30:40.245Z,15.10
2022-07-31T05:31:40.245Z,15.30
2022-07-31T05:32:40.246Z,16.10
2022-07-31T05:33:40.242Z,14.90
2022-07-31T05:34:40.245Z,13.90
2022-07-31T05:35:40.258Z,13.00
2022-07-31T05:36:40.243Z,12.90
2022-07-31T05:37:40.245Z,12.40
2022-07-31T05:38:40.246Z,12.30
2022-07-31T05:39:40.243Z,13.00
2022-07-31T05:40:40.244Z,12.50
2022-07-31T05:41:40.245Z,12.10
2022-07-31T05:42:40.246Z,11.70
2022-07-31T05:43:40.248Z,12.30
2022-07-31T05:44:40.249Z,12.10
2022-07-31T05:45:40.246Z,12.70
2022-07-31T05:46:40.249Z,12.70
2022-07-31T05:47:41.153Z,12.60
2022-07-31T05:48:40.247Z,12.80
2022-07-31T05:49:40.252Z,12.50
2022-07-31T05:50:40.248Z,13.40
2022-07-31T05:51:40.250Z,12.40
2022-07-31T05:52:40.248Z,13.00
2022-07-31T05:53:40.249Z,13.80
2022-07-31T05:54:40.251Z,13.30
2022-07-31T05:55:40.252Z,12.70
2022-07-31T05:56:40.252Z,12.60
2022-07-31T05:57:40.251Z,13.10
2022-07-31T05:58:40.252Z,13.30
2022-07-31T05:59:40.253Z,13.60
2022-07-31T06:00:40.255Z,14.50
2022-07-31T06:01:40.313Z,14.10
2022-07-31T06:02:40.258Z,15.20
2022-07-31T06:03:52.131Z,15.40
2022-07-31T06:04:40.256Z,14.60
2022-07-31T06:05:40.259Z,15.40
2022-07-31T06:06:40.259Z,15.00
2022-07-31T06:07:40.260Z,14.60
2022-07-31T06:08:40.262Z,15.20
2022-07-31T06:09:40.271Z,16.40
2022-07-31T06:10:40.275Z,16.00
2022-07-31T06:11:40.267Z,16.00
2022-07-31T06:12:40.267Z,15.90
2022-07-31T06:13:40.267Z,15.40
2022-07-31T06:14:40.272Z,16.70
2022-07-31T06:15:40.271Z,16.30
2022-07-31T06:16:40.271Z,15.80
2022-07-31T06:17:44.508Z,15.30
2022-07-31T06:18:40.276Z,15.20
2022-07-31T06:19:40.280Z,15.50
2022-07-31T06:20:40.282Z,14.90
2022-07-31T06:21:40.282Z,15.80
2022-07-31T06:22:40.280Z,16.90
2022-07-31T06:23:40.289Z,15.00
2022-07-31T06:24:42.562Z,14.10
2022-07-31T06:25:40.297Z,13.70
2022-07-31T06:26:40.290Z,13.70
2022-07-31T06:27:40.292Z,14.00
2022-07-31T06:28:48.161Z,14.30
2022-07-31T06:29:41.655Z,14.70
2022-07-31T06:30:40.301Z,13.50
2022-07-31T06:31:40.305Z,13.30
2022-07-31T06:32:40.304Z,13.20
2022-07-31T06:33:40.306Z,13.70
2022-07-31T06:34:40.309Z,12.20
2022-07-31T06:35:40.313Z,11.60
2022-07-31T06:36:40.316Z,11.30
2022-07-31T06:37:40.316Z,10.50
2022-07-31T06:38:40.320Z,9.20
2022-07-31T06:39:55.659Z,9.10
2022-07-31T06:40:40.325Z,8.70
2022-07-31T06:41:40.327Z,7.80
2022-07-31T06:42:40.333Z,7.40
2022-07-31T06:43:40.335Z,8.50
2022-07-31T06:44:40.479Z,7.00
2022-07-31T06:45:51.079Z,7.00
2022-07-31T06:46:48.609Z,6.40
2022-07-31T06:47:40.346Z,7.20
2022-07-31T06:48:40.348Z,5.90
2022-07-31T06:49:40.410Z,7.20
2022-07-31T06:50:40.355Z,5.80
2022-07-31T06:51:40.357Z,6.50
2022-07-31T06:52:40.365Z,6.20
2022-07-31T06:53:40.363Z,5.00
2022-07-31T06:54:40.369Z,6.10
2022-07-31T06:55:44.544Z,5.00
2022-07-31T06:56:40.377Z,6.50
2022-07-31T06:57:40.378Z,6.10
2022-07-31T06:58:40.381Z,6.50
2022-07-31T06:59:40.878Z,6.00
2022-07-31T07:00:40.389Z,7.70
2022-07-31T07:01:40.569Z,6.40
2022-07-31T07:02:40.398Z,4.60
2022-07-31T07:03:40.399Z,5.20
2022-07-31T07:05:01.530Z,7.20
2022-07-31T07:05:45.019Z,5.20
2022-07-31T07:06:40.412Z,5.60
2022-07-31T07:07:40.418Z,6.30
2022-07-31T07:08:40.419Z,4.00
2022-07-31T07:09:40.425Z,7.40
2022-07-31T07:10:40.429Z,6.00
2022-07-31T07:11:40.434Z,6.00
2022-07-31T07:12:40.439Z,4.70
2022-07-31T07:13:45.732Z,5.00
2022-07-31T07:14:40.448Z,5.30
2022-07-31T07:15:40.455Z,6.00
2022-07-31T07:16:40.454Z,7.30
2022-07-31T07:17:40.460Z,4.70
2022-07-31T07:18:40.467Z,5.70
2022-07-31T07:19:40.471Z,6.30
2022-07-31T07:20:40.475Z,4.70
2022-07-31T07:21:40.476Z,4.70
2022-07-31T07:22:40.482Z,4.90
2022-07-31T07:23:40.487Z,5.40
2022-07-31T07:24:40.493Z,4.70
2022-07-31T07:25:40.497Z,6.50
2022-07-31T07:26:40.502Z,7.40
2022-07-31T07:27:40.505Z,7.10
2022-07-31T07:28:40.510Z,4.90
2022-07-31T07:29:40.516Z,5.10
2022-07-31T07:30:40.520Z,5.40
2022-07-31T07:31:40.528Z,7.60
2022-07-31T07:32:40.531Z,6.10
2022-07-31T07:33:42.763Z,5.50
2022-07-31T07:34:40.543Z,5.30
2022-07-31T07:35:40.546Z,5.60
2022-07-31T07:36:40.552Z,5.90
2022-07-31T07:37:40.558Z,5.80
2022-07-31T07:38:40.563Z,6.00
2022-07-31T07:39:40.568Z,6.70
2022-07-31T07:40:40.574Z,6.30
2022-07-31T07:41:40.579Z,6.30
2022-07-31T07:42:40.585Z,7.90
2022-07-31T07:43:40.592Z,6.50
2022-07-31T07:44:40.596Z,6.50
2022-07-31T07:45:40.603Z,6.40
2022-07-31T07:46:40.609Z,6.50
2022-07-31T07:48:05.198Z,7.00
2022-07-31T07:48:40.622Z,7.00
2022-07-31T07:49:40.627Z,7.00
2022-07-31T07:50:40.636Z,7.10
2022-07-31T07:51:59.118Z,7.90
2022-07-31T07:52:43.856Z,7.10
2022-07-31T07:53:40.663Z,7.50
2022-07-31T07:54:40.676Z,6.30
2022-07-31T07:55:40.670Z,5.10
2022-07-31T07:56:40.671Z,5.20
2022-07-31T07:57:40.679Z,7.90
2022-07-31T07:58:40.686Z,5.20
2022-07-31T07:59:40.697Z,6.00
2022-07-31T08:00:40.847Z,6.60
2022-07-31T08:01:40.777Z,4.70
2022-07-31T08:02:40.714Z,5.60
2022-07-31T08:03:48.460Z,7.60
2022-07-31T08:04:43.587Z,7.10
2022-07-31T08:05:40.733Z,5.10
2022-07-31T08:06:40.740Z,5.00
2022-07-31T08:07:42.147Z,6.10
2022-07-31T08:08:40.751Z,6.40
2022-07-31T08:09:40.758Z,6.20
2022-07-31T08:10:40.765Z,6.00
2022-07-31T08:11:40.770Z,6.80
2022-07-31T08:12:40.776Z,6.80
2022-07-31T08:13:41.011Z,6.20
2022-07-31T08:14:40.788Z,6.10
2022-07-31T08:15:40.796Z,8.20
2022-07-31T08:16:40.801Z,6.90
2022-07-31T08:17:40.806Z,6.60
2022-07-31T08:18:40.812Z,6.40
2022-07-31T08:19:40.819Z,6.20
2022-07-31T08:20:40.824Z,6.50
2022-07-31T08:21:40.828Z,6.40
2022-07-31T08:22:40.836Z,7.10
2022-07-31T08:23:40.841Z,6.50
2022-07-31T08:24:40.850Z,6.80
2022-07-31T08:25:40.851Z,6.60
2022-07-31T08:26:40.858Z,6.70
2022-07-31T08:27:40.863Z,6.60
2022-07-31T08:28:41.465Z,6.60
2022-07-31T08:29:40.872Z,6.50
2022-07-31T08:30:40.878Z,6.20
2022-07-31T08:31:40.882Z,6.90
2022-07-31T08:32:40.885Z,7.10
2022-07-31T08:33:40.891Z,6.00
2022-07-31T08:34:42.261Z,6.60
2022-07-31T08:35:40.901Z,6.50
2022-07-31T08:36:40.903Z,6.30
2022-07-31T08:38:01.602Z,6.00
2022-07-31T08:38:40.911Z,5.80
2022-07-31T08:39:40.916Z,5.50
2022-07-31T08:40:43.272Z,5.70
2022-07-31T08:41:40.919Z,4.70
2022-07-31T08:42:40.927Z,3.60
2022-07-31T08:44:02.285Z,6.30
2022-07-31T08:44:40.931Z,4.50
2022-07-31T08:45:40.934Z,7.90
2022-07-31T08:46:40.976Z,6.20
2022-07-31T08:47:40.939Z,5.70
2022-07-31T08:48:40.944Z,5.10
2022-07-31T08:49:41.013Z,3.60
2022-07-31T08:50:40.950Z,4.50
2022-07-31T08:51:52.532Z,4.80
2022-07-31T08:52:40.955Z,3.60
2022-07-31T08:53:40.958Z,5.00
2022-07-31T08:54:40.961Z,3.60
2022-07-31T08:55:56.200Z,5.90
2022-07-31T08:56:40.965Z,6.20
2022-07-31T08:57:40.971Z,4.90
2022-07-31T08:58:40.974Z,3.80
2022-07-31T08:59:40.976Z,5.70
2022-07-31T09:00:41.002Z,5.10
2022-07-31T09:01:41.076Z,5.00
2022-07-31T09:02:40.989Z,4.90
2022-07-31T09:03:40.993Z,4.20
2022-07-31T09:04:40.996Z,5.50
2022-07-31T09:05:41.959Z,5.70
2022-07-31T09:06:41.006Z,6.40
2022-07-31T09:07:41.005Z,4.20
2022-07-31T09:08:41.008Z,7.20
2022-07-31T09:09:51.113Z,5.50
2022-07-31T09:10:41.822Z,5.50
2022-07-31T09:11:41.019Z,4.30
2022-07-31T09:12:41.021Z,6.10
2022-07-31T09:13:41.024Z,6.40
2022-07-31T09:14:41.027Z,4.50
2022-07-31T09:15:41.032Z,5.50
2022-07-31T09:16:41.031Z,5.60
2022-07-31T09:17:41.036Z,5.40
2022-07-31T09:18:41.037Z,6.30
2022-07-31T09:19:52.080Z,5.10
2022-07-31T09:20:41.041Z,5.70
2022-07-31T09:21:41.046Z,8.70
2022-07-31T09:22:41.047Z,4.10
2022-07-31T09:23:41.048Z,3.80
2022-07-31T09:24:41.052Z,4.50
2022-07-31T09:25:41.054Z,3.70
2022-07-31T09:26:41.085Z,8.10
2022-07-31T09:27:41.061Z,4.20
2022-07-31T09:28:41.063Z,6.30
2022-07-31T09:29:41.064Z,4.50
2022-07-31T09:30:56.341Z,5.20
2022-07-31T09:31:41.064Z,4.10
2022-07-31T09:32:41.068Z,5.10
2022-07-31T09:33:45.487Z,3.20
2022-07-31T09:34:41.075Z,6.20
2022-07-31T09:35:41.626Z,4.90
2022-07-31T09:36:41.074Z,5.00
2022-07-31T09:37:41.075Z,6.40
2022-07-31T09:38:41.091Z,4.90
2022-07-31T09:39:52.259Z,5.20
2022-07-31T09:40:55.204Z,5.00
2022-07-31T09:42:01.477Z,6.80
2022-07-31T09:42:45.556Z,5.10
2022-07-31T09:43:48.433Z,5.40
2022-07-31T09:44:41.088Z,4.10
2022-07-31T09:45:48.084Z,4.00
2022-07-31T09:46:41.096Z,4.10
2022-07-31T09:47:41.094Z,7.70
2022-07-31T09:48:41.097Z,7.50
2022-07-31T09:49:41.271Z,5.70
2022-07-31T09:50:41.098Z,6.50
2022-07-31T09:51:41.098Z,4.60
2022-07-31T09:52:41.099Z,5.50
2022-07-31T09:53:43.518Z,5.20
2022-07-31T09:54:41.103Z,6.60
2022-07-31T09:55:41.105Z,4.00
2022-07-31T09:56:41.105Z,5.10
2022-07-31T09:57:41.106Z,5.30
2022-07-31T09:58:41.114Z,4.50
2022-07-31T09:59:41.112Z,6.10
2022-07-31T10:00:41.187Z,5.20
2022-07-31T10:01:41.116Z,5.50
2022-07-31T10:02:41.116Z,6.40
2022-07-31T10:03:41.128Z,4.90
2022-07-31T10:04:41.120Z,3.70
2022-07-31T10:05:41.121Z,6.40
2022-07-31T10:06:41.123Z,4.50
2022-07-31T10:07:41.122Z,8.70
2022-07-31T10:08:41.124Z,4.70
2022-07-31T10:09:41.135Z,4.80
2022-07-31T10:10:41.131Z,5.70
2022-07-31T10:11:41.132Z,5.50
2022-07-31T10:12:41.130Z,7.00
2022-07-31T10:13:42.367Z,4.90
2022-07-31T10:14:41.138Z,4.10
2022-07-31T10:15:41.136Z,4.30
2022-07-31T10:16:41.140Z,5.20
2022-07-31T10:17:41.142Z,5.10
2022-07-31T10:18:44.303Z,5.90
2022-07-31T10:19:41.145Z,6.40
2022-07-31T10:20:41.146Z,4.70
2022-07-31T10:21:41.148Z,3.40
2022-07-31T10:22:41.149Z,5.40
2022-07-31T10:23:41.151Z,5.40
2022-07-31T10:24:41.150Z,4.70
2022-07-31T10:25:41.154Z,4.90
2022-07-31T10:27:10.936Z,4.90
2022-07-31T10:27:41.155Z,5.70
2022-07-31T10:28:41.158Z,4.70
2022-07-31T10:29:41.158Z,5.30
2022-07-31T10:30:41.159Z,4.80
2022-07-31T10:31:41.165Z,5.70
2022-07-31T10:32:41.168Z,3.70
2022-07-31T10:33:43.927Z,5.70
2022-07-31T10:34:41.170Z,6.00
2022-07-31T10:35:41.175Z,3.50
2022-07-31T10:36:41.178Z,5.40
2022-07-31T10:37:41.169Z,4.30
2022-07-31T10:38:41.299Z,4.70
2022-07-31T10:39:41.173Z,5.00
2022-07-31T10:40:41.174Z,4.60
2022-07-31T10:41:41.175Z,4.50
2022-07-31T10:42:41.178Z,3.70
2022-07-31T10:43:41.178Z,4.50
2022-07-31T10:44:41.179Z,3.90
2022-07-31T10:45:41.181Z,3.10
2022-07-31T10:46:41.186Z,6.40
2022-07-31T10:47:48.023Z,5.10
2022-07-31T10:48:41.183Z,4.60
2022-07-31T10:49:41.226Z,5.10
2022-07-31T10:50:41.187Z,4.70
2022-07-31T10:51:41.188Z,4.00
2022-07-31T10:52:41.219Z,6.00
2022-07-31T10:53:50.869Z,5.40
2022-07-31T10:54:41.191Z,3.40
2022-07-31T10:55:41.196Z,5.20
2022-07-31T10:56:41.196Z,6.70
2022-07-31T10:57:56.572Z,6.00
2022-07-31T10:58:41.196Z,6.30
2022-07-31T10:59:44.585Z,4.30
2022-07-31T11:00:41.198Z,4.10
2022-07-31T11:01:41.265Z,4.00
2022-07-31T11:02:41.264Z,6.10
2022-07-31T11:03:41.208Z,5.30
2022-07-31T11:04:41.204Z,4.20
2022-07-31T11:06:01.981Z,9.80
2022-07-31T11:06:41.210Z,4.80
2022-07-31T11:07:41.209Z,6.00
2022-07-31T11:08:41.214Z,4.00
2022-07-31T11:09:50.348Z,4.80
2022-07-31T11:10:41.215Z,5.70
2022-07-31T11:11:41.215Z,3.90
2022-07-31T11:12:41.216Z,5.00
2022-07-31T11:13:41.219Z,5.30
2022-07-31T11:14:41.220Z,3.40
2022-07-31T11:15:41.220Z,5.60
2022-07-31T11:16:41.220Z,4.50
2022-07-31T11:18:22.528Z,4.40
2022-07-31T11:18:41.228Z,5.00
2022-07-31T11:19:41.573Z,4.90
2022-07-31T11:20:41.229Z,5.40
2022-07-31T11:21:41.232Z,4.90
2022-07-31T11:22:41.233Z,5.10
2022-07-31T11:23:41.236Z,7.00
2022-07-31T11:24:41.236Z,5.00
2022-07-31T11:25:41.236Z,4.70
2022-07-31T11:26:42.310Z,5.40
2022-07-31T11:27:41.240Z,4.80
2022-07-31T11:28:41.242Z,6.20
2022-07-31T11:29:59.265Z,5.20
2022-07-31T11:30:41.246Z,6.30
2022-07-31T11:31:41.247Z,4.90
2022-07-31T11:32:41.250Z,5.10
2022-07-31T11:33:42.727Z,4.30
2022-07-31T11:34:41.250Z,4.60
2022-07-31T11:35:41.254Z,5.10
2022-07-31T11:36:41.260Z,5.10
2022-07-31T11:37:57.021Z,5.60
2022-07-31T11:38:41.261Z,5.30
2022-07-31T11:39:41.265Z,3.60
2022-07-31T11:40:41.265Z,6.20
2022-07-31T11:41:44.591Z,5.50
2022-07-31T11:42:41.269Z,6.10
2022-07-31T11:43:41.270Z,4.70
2022-07-31T11:44:41.269Z,7.60
2022-07-31T11:45:41.273Z,4.30
2022-07-31T11:46:41.273Z,4.40
2022-07-31T11:48:11.565Z,4.00
2022-07-31T11:48:45.401Z,5.10
2022-07-31T11:49:49.149Z,5.20
2022-07-31T11:50:41.283Z,4.20
2022-07-31T11:51:41.292Z,7.40
2022-07-31T11:52:41.288Z,3.60
2022-07-31T11:53:41.288Z,3.10
2022-07-31T11:54:41.287Z,5.10
2022-07-31T11:55:41.296Z,5.90
2022-07-31T11:56:41.293Z,5.10
2022-07-31T11:57:51.662Z,5.30
2022-07-31T11:58:41.298Z,3.40
2022-07-31T11:59:45.808Z,5.00
2022-07-31T12:00:41.302Z,5.60
2022-07-31T12:01:41.304Z,4.30
2022-07-31T12:02:41.348Z,3.50
2022-07-31T12:03:41.310Z,3.80
2022-07-31T12:04:41.310Z,4.60
2022-07-31T12:05:41.314Z,3.60
2022-07-31T12:06:41.316Z,3.90
2022-07-31T12:07:41.320Z,4.00
2022-07-31T12:08:41.319Z,5.50
2022-07-31T12:10:01.177Z,4.60
2022-07-31T12:10:41.326Z,4.60
2022-07-31T12:11:41.328Z,5.80
2022-07-31T12:12:41.331Z,4.50
2022-07-31T12:13:41.331Z,8.30
2022-07-31T12:14:41.335Z,7.00
2022-07-31T12:15:41.336Z,4.20
2022-07-31T12:16:41.339Z,4.20
2022-07-31T12:17:41.340Z,5.10
2022-07-31T12:18:41.343Z,3.80
2022-07-31T12:19:41.347Z,4.70
2022-07-31T12:20:41.346Z,5.10
2022-07-31T12:21:41.349Z,3.30
2022-07-31T12:22:41.354Z,4.20
2022-07-31T12:23:42.026Z,6.10
2022-07-31T12:24:41.357Z,5.70
2022-07-31T12:25:41.358Z,5.40
2022-07-31T12:26:41.358Z,5.30
2022-07-31T12:27:41.361Z,4.70
2022-07-31T12:28:41.359Z,4.70
2022-07-31T12:29:41.364Z,5.40
2022-07-31T12:30:41.365Z,5.80
2022-07-31T12:31:41.378Z,7.00
2022-07-31T12:32:41.370Z,6.60
2022-07-31T12:33:41.371Z,5.80
2022-07-31T12:34:41.376Z,5.20
2022-07-31T12:35:55.051Z,6.00
2022-07-31T12:36:41.377Z,6.30
2022-07-31T12:37:41.383Z,3.90
2022-07-31T12:38:45.518Z,4.60
2022-07-31T12:39:54.334Z,4.40
2022-07-31T12:40:41.386Z,5.50
2022-07-31T12:41:41.390Z,3.80
2022-07-31T12:42:42.184Z,4.70
2022-07-31T12:43:50.252Z,3.80
2022-07-31T12:44:41.399Z,3.40
2022-07-31T12:45:41.400Z,4.30
2022-07-31T12:46:41.417Z,4.80
2022-07-31T12:47:41.405Z,5.30
2022-07-31T12:48:45.957Z,7.20
2022-07-31T12:49:41.580Z,4.90
2022-07-31T12:50:41.413Z,4.40
2022-07-31T12:51:44.901Z,5.30
2022-07-31T12:52:41.420Z,4.60
2022-07-31T12:53:41.420Z,3.40
2022-07-31T12:54:41.424Z,4.40
2022-07-31T12:55:41.428Z,7.00
2022-07-31T12:56:41.428Z,4.10
2022-07-31T12:57:41.757Z,3.50
2022-07-31T12:58:41.436Z,5.00
2022-07-31T12:59:41.437Z,3.80
2022-07-31T13:00:41.442Z,4.90
2022-07-31T13:01:41.498Z,4.20
2022-07-31T13:02:41.446Z,5.10
2022-07-31T13:03:45.995Z,4.10
2022-07-31T13:04:41.451Z,6.20
2022-07-31T13:05:41.456Z,7.70
2022-07-31T13:06:41.459Z,4.20
2022-07-31T13:07:41.464Z,6.10
2022-07-31T13:08:41.467Z,4.00
2022-07-31T13:09:41.469Z,5.20
2022-07-31T13:10:41.475Z,4.50
2022-07-31T13:11:46.960Z,6.70
2022-07-31T13:12:41.478Z,5.90
2022-07-31T13:13:41.483Z,5.30
2022-07-31T13:14:41.485Z,4.50
2022-07-31T13:15:41.492Z,4.50